createdAt,value
2023-03-19T00:01:48.290Z,1.88
2023-03-19T00:04:17.512Z,1.87
2023-03-19T00:06:45.933Z,1.87
2023-03-19T00:09:20.800Z,1.87
2023-03-19T00:11:50.317Z,1.87
2023-03-19T00:14:18.655Z,1.87
2023-03-19T00:16:47.936Z,1.87
2023-03-19T00:19:16.449Z,1.86
2023-03-19T00:21:53.158Z,1.86
2023-03-19T00:24:21.522Z,1.86
2023-03-19T00:26:49.785Z,1.87
2023-03-19T00:29:18.561Z,1.88
2023-03-19T00:31:47.889Z,1.88
2023-03-19T00:34:19.084Z,1.88
2023-03-19T00:36:47.821Z,1.89
2023-03-19T00:39:24.801Z,1.90
2023-03-19T00:41:53.803Z,1.90
2023-03-19T00:44:21.984Z,1.91
2023-03-19T00:46:57.708Z,1.91
2023-03-19T00:49:27.295Z,1.91
2023-03-19T00:51:55.569Z,1.91
2023-03-19T00:54:24.402Z,1.91
2023-03-19T00:56:52.658Z,1.91
2023-03-19T00:59:21.020Z,1.91
2023-03-19T01:01:49.279Z,1.90
2023-03-19T01:04:19.435Z,1.89
2023-03-19T01:06:47.809Z,1.88
2023-03-19T01:09:16.316Z,1.86
2023-03-19T01:11:44.790Z,1.85
2023-03-19T01:14:18.242Z,1.84
2023-03-19T01:16:46.458Z,1.83
2023-03-19T01:19:16.555Z,1.82
2023-03-19T01:21:46.722Z,1.82
2023-03-19T01:24:19.733Z,1.82
2023-03-19T01:26:57.501Z,1.82
2023-03-19T01:29:36.955Z,1.82
2023-03-19T01:32:21.808Z,1.82
2023-03-19T01:35:09.822Z,1.83
2023-03-19T01:37:43.846Z,1.83
2023-03-19T01:40:13.524Z,1.84
2023-03-19T01:43:03.721Z,1.84
2023-03-19T01:45:53.402Z,1.84
2023-03-19T01:48:43.683Z,1.84
2023-03-19T01:51:20.833Z,1.84
2023-03-19T01:54:06.506Z,1.84
2023-03-19T01:56:52.182Z,1.84
2023-03-19T01:59:48.612Z,1.84
2023-03-19T02:02:37.837Z,1.85
2023-03-19T02:05:16.006Z,1.85
2023-03-19T02:07:50.309Z,1.85
2023-03-19T02:10:18.638Z,1.86
2023-03-19T02:12:47.161Z,1.86
2023-03-19T02:15:19.790Z,1.87
2023-03-19T02:17:53.321Z,1.87
2023-03-19T02:20:21.579Z,1.87
2023-03-19T02:22:56.946Z,1.87
2023-03-19T02:25:38.488Z,1.88
2023-03-19T02:28:10.018Z,1.89
2023-03-19T02:30:39.399Z,1.88
2023-03-19T02:33:14.105Z,1.88
2023-03-19T02:35:49.627Z,1.88
2023-03-19T02:38:21.796Z,1.88
2023-03-19T02:41:00.484Z,1.88
2023-03-19T02:43:30.000Z,1.89
2023-03-19T02:45:58.339Z,1.89
2023-03-19T02:48:26.973Z,1.90
2023-03-19T02:50:55.800Z,1.90
2023-03-19T02:53:26.328Z,1.90
2023-03-19T02:55:55.799Z,1.92
2023-03-19T02:58:24.131Z,1.92
2023-03-19T03:00:54.050Z,1.92
2023-03-19T03:03:22.542Z,1.91
2023-03-19T03:05:50.885Z,1.91
2023-03-19T03:08:19.570Z,1.89
2023-03-19T03:10:48.262Z,1.88
2023-03-19T03:13:17.412Z,1.89
2023-03-19T03:16:19.398Z,1.88
2023-03-19T03:18:47.855Z,1.86
2023-03-19T03:21:20.343Z,1.86
2023-03-19T03:23:48.782Z,1.85
2023-03-19T03:26:17.054Z,1.85
2023-03-19T03:28:45.947Z,1.85
2023-03-19T03:31:15.168Z,1.86
2023-03-19T03:33:45.040Z,1.86
2023-03-19T03:36:13.680Z,1.85
2023-03-19T03:38:41.953Z,1.85
2023-03-19T03:41:13.185Z,1.84
2023-03-19T03:43:42.547Z,1.84
2023-03-19T03:46:11.580Z,1.83
2023-03-19T03:48:41.956Z,1.82
2023-03-19T03:51:11.904Z,1.83
2023-03-19T03:53:45.740Z,1.82
2023-03-19T03:56:14.484Z,1.82
2023-03-19T03:58:42.743Z,1.83
2023-03-19T04:01:16.638Z,1.84
2023-03-19T04:03:45.993Z,1.84
2023-03-19T04:06:29.147Z,1.84
2023-03-19T04:09:14.350Z,1.85
2023-03-19T04:11:42.850Z,1.85
2023-03-19T04:14:17.828Z,1.86
2023-03-19T04:16:47.017Z,1.88
2023-03-19T04:19:15.788Z,1.87
2023-03-19T04:21:47.071Z,1.88
2023-03-19T04:24:15.720Z,1.89
2023-03-19T04:26:47.234Z,1.88
2023-03-19T04:29:18.986Z,1.87
2023-03-19T04:31:47.886Z,1.88
2023-03-19T04:34:16.136Z,1.89
2023-03-19T04:36:44.758Z,1.89
2023-03-19T04:39:18.490Z,1.90
2023-03-19T04:41:47.477Z,1.91
2023-03-19T04:44:42.325Z,1.92
2023-03-19T04:47:22.295Z,1.93
2023-03-19T04:49:54.752Z,1.94
2023-03-19T04:52:24.133Z,1.96
2023-03-19T04:54:53.240Z,1.95
2023-03-19T04:57:26.058Z,1.96
2023-03-19T04:59:59.690Z,1.98
2023-03-19T05:02:28.303Z,1.99
2023-03-19T05:04:56.907Z,2.00
2023-03-19T05:07:25.505Z,1.99
2023-03-19T05:09:54.831Z,2.01
2023-03-19T05:12:27.358Z,2.02
2023-03-19T05:14:58.245Z,2.03
2023-03-19T05:17:37.715Z,2.04
2023-03-19T05:20:19.478Z,2.07
2023-03-19T05:22:53.723Z,2.07
2023-03-19T05:25:23.237Z,2.08
2023-03-19T05:27:51.891Z,2.09
2023-03-19T05:30:24.217Z,2.11
2023-03-19T05:32:53.369Z,2.15
2023-03-19T05:35:43.240Z,2.20
2023-03-19T05:38:18.320Z,2.22
2023-03-19T05:40:54.937Z,2.22
2023-03-19T05:43:34.516Z,2.23
2023-03-19T05:46:06.876Z,2.23
2023-03-19T05:48:35.426Z,2.24
2023-03-19T05:51:06.868Z,2.27
2023-03-19T05:53:39.667Z,2.31
2023-03-19T05:56:25.538Z,2.36
2023-03-19T05:59:12.833Z,2.37
2023-03-19T06:01:42.544Z,2.37
2023-03-19T06:04:11.104Z,2.37
2023-03-19T06:06:43.004Z,2.40
2023-03-19T06:09:11.710Z,2.45
2023-03-19T06:11:45.098Z,2.48
2023-03-19T06:14:32.332Z,2.52
2023-03-19T06:17:19.345Z,2.56
2023-03-19T06:19:53.492Z,2.56
2023-03-19T06:22:21.992Z,2.55
2023-03-19T06:24:50.315Z,2.56
2023-03-19T06:27:18.850Z,2.59
2023-03-19T06:29:47.382Z,2.65
2023-03-19T06:32:37.505Z,2.67
2023-03-19T06:35:13.809Z,2.65
2023-03-19T06:37:44.047Z,2.66
2023-03-19T06:40:12.600Z,2.66
2023-03-19T06:42:42.395Z,2.64
2023-03-19T06:45:12.668Z,2.64
2023-03-19T06:47:46.850Z,2.66
2023-03-19T06:50:16.743Z,2.67
2023-03-19T06:52:50.833Z,2.69
2023-03-19T06:55:20.771Z,2.74
2023-03-19T06:57:50.867Z,2.80
2023-03-19T07:00:20.889Z,2.82
2023-03-19T07:02:49.760Z,2.83
2023-03-19T07:05:23.967Z,2.83
2023-03-19T07:07:53.275Z,2.88
2023-03-19T07:10:23.726Z,2.93
2023-03-19T07:12:58.758Z,2.93
2023-03-19T07:15:27.154Z,2.94
2023-03-19T07:17:55.444Z,3.00
2023-03-19T07:20:24.846Z,3.04
2023-03-19T07:22:57.365Z,3.03
2023-03-19T07:25:26.286Z,3.02
2023-03-19T07:27:56.154Z,3.03
2023-03-19T07:30:24.744Z,3.04
2023-03-19T07:32:53.144Z,3.08
2023-03-19T07:35:31.224Z,3.09
2023-03-19T07:38:00.533Z,3.07
2023-03-19T11:13:26.482Z,5.25
2023-03-19T11:15:58.517Z,5.26
2023-03-19T11:18:52.797Z,5.34
2023-03-19T11:21:29.295Z,5.39
2023-03-19T11:24:03.045Z,5.37
2023-03-19T11:26:35.444Z,5.34
2023-03-19T11:29:04.741Z,5.32
2023-03-19T11:31:40.282Z,5.34
2023-03-19T11:34:21.592Z,5.37
2023-03-19T11:37:08.082Z,5.42
2023-03-19T11:40:15.707Z,5.47
2023-03-19T11:42:50.062Z,5.52
2023-03-19T11:45:53.679Z,5.56
2023-03-19T11:48:46.849Z,5.58
2023-03-19T11:51:40.339Z,5.63
2023-03-19T11:54:18.028Z,5.66
2023-03-19T11:57:00.174Z,5.64
2023-03-19T11:59:37.910Z,5.62
2023-03-19T12:02:15.680Z,5.60
2023-03-19T12:05:11.748Z,5.57
2023-03-19T12:07:53.585Z,5.54
2023-03-19T12:10:37.226Z,5.50
2023-03-19T12:13:22.650Z,5.46
2023-03-19T12:16:02.831Z,5.50
2023-03-19T12:18:54.338Z,5.48
2023-03-19T12:21:40.887Z,5.42
2023-03-19T12:24:54.175Z,5.41
2023-03-19T12:27:26.099Z,5.38
2023-03-19T12:30:16.838Z,5.36
2023-03-19T12:33:13.187Z,5.38
2023-03-19T12:35:43.447Z,5.39
2023-03-19T12:38:48.899Z,5.38
2023-03-19T12:41:23.588Z,5.30
2023-03-19T12:43:59.268Z,5.22
2023-03-19T12:46:34.804Z,5.18
2023-03-19T12:49:12.170Z,5.14
2023-03-19T12:51:48.393Z,5.13
2023-03-19T12:54:25.848Z,5.13
2023-03-19T12:57:11.670Z,5.11
2023-03-19T13:00:10.896Z,5.08
2023-03-19T13:02:48.049Z,5.06
2023-03-19T13:05:37.858Z,5.09
2023-03-19T13:08:17.684Z,5.15
2023-03-19T13:10:46.114Z,5.21
2023-03-19T13:13:39.896Z,5.23
2023-03-19T13:16:27.199Z,5.23
2023-03-19T13:19:05.055Z,5.20
2023-03-19T13:21:35.298Z,5.16
2023-03-19T13:24:21.480Z,5.11
2023-03-19T13:26:50.208Z,5.10
2023-03-19T13:29:27.356Z,5.07
2023-03-19T13:32:05.469Z,5.06
2023-03-19T13:34:38.773Z,5.05
2023-03-19T13:37:11.691Z,5.04
2023-03-19T13:39:42.580Z,5.02
2023-03-19T13:42:20.363Z,5.02
2023-03-19T13:45:03.613Z,5.02
2023-03-19T13:47:37.957Z,5.04
2023-03-19T13:50:26.989Z,5.05
2023-03-19T13:53:33.813Z,5.01
2023-03-19T13:56:28.940Z,4.96
2023-03-19T14:02:38.019Z,4.90
2023-03-19T14:05:44.454Z,4.88
2023-03-19T14:08:19.701Z,4.84
2023-03-19T14:10:58.696Z,4.83
2023-03-19T14:13:43.525Z,4.83
2023-03-19T14:16:22.621Z,4.83
2023-03-19T14:18:56.999Z,4.81
2023-03-19T14:21:39.991Z,4.81
2023-03-19T14:24:55.764Z,4.81
2023-03-19T14:27:59.594Z,4.82
2023-03-19T14:30:34.269Z,4.80
2023-03-19T14:33:08.670Z,4.80
2023-03-19T14:35:43.154Z,4.80
2023-03-19T14:38:37.540Z,4.81
2023-03-19T14:41:15.000Z,4.82
2023-03-19T14:44:35.749Z,4.81
2023-03-19T14:47:25.947Z,4.79
2023-03-19T14:50:28.461Z,4.79
2023-03-19T14:53:05.902Z,4.79
2023-03-19T14:55:38.301Z,4.79
2023-03-19T14:58:12.422Z,4.80
2023-03-19T15:00:43.712Z,4.82
2023-03-19T15:03:21.766Z,4.81
2023-03-19T15:05:50.400Z,4.80
2023-03-19T15:08:22.718Z,4.79
2023-03-19T15:11:05.540Z,4.79
2023-03-19T15:13:39.967Z,4.80
2023-03-19T15:16:50.486Z,4.81
2023-03-19T15:19:26.722Z,4.83
2023-03-19T15:22:20.596Z,4.85
2023-03-19T15:24:49.668Z,4.86
2023-03-19T15:27:21.254Z,4.87
2023-03-19T15:29:51.656Z,4.87
2023-03-19T15:33:07.833Z,4.85
2023-03-19T15:35:31.928Z,4.84
2023-03-19T15:38:06.742Z,4.81
2023-03-19T15:40:35.272Z,4.80
2023-03-19T15:43:03.868Z,4.80
2023-03-19T15:45:34.033Z,4.78
2023-03-19T15:48:10.263Z,4.77
2023-03-19T15:50:41.556Z,4.76
2023-03-19T15:53:25.545Z,4.75
2023-03-19T15:55:54.276Z,4.73
2023-03-19T15:58:29.795Z,4.73
2023-03-19T16:00:59.497Z,4.70
2023-03-19T16:03:33.383Z,4.71
2023-03-19T16:06:03.613Z,4.72
2023-03-19T16:08:34.509Z,4.73
2023-03-19T16:11:14.696Z,4.72
2023-03-19T16:13:47.106Z,4.72
2023-03-19T16:16:22.688Z,4.73
2023-03-19T16:18:56.212Z,4.72
2023-03-19T16:21:30.970Z,4.71
2023-03-19T16:24:08.516Z,4.69
2023-03-19T16:26:46.987Z,4.68
2023-03-19T16:29:29.409Z,4.68
2023-03-19T16:32:24.473Z,4.67
2023-03-19T16:34:57.004Z,4.66
2023-03-19T16:37:46.944Z,4.65
2023-03-19T16:40:17.990Z,4.65
2023-03-19T16:42:52.616Z,4.66
2023-03-19T16:45:27.943Z,4.65
2023-03-19T16:48:03.507Z,4.64
2023-03-19T16:50:40.016Z,4.63
2023-03-19T16:53:36.384Z,4.60
2023-03-19T16:56:29.849Z,4.59
2023-03-19T16:58:58.435Z,4.57
2023-03-19T17:01:28.314Z,4.57
2023-03-19T17:03:56.642Z,4.57
2023-03-19T17:06:31.816Z,4.55
2023-03-19T17:09:00.605Z,4.54
2023-03-19T17:11:36.272Z,4.54
2023-03-19T17:14:07.891Z,4.53
2023-03-19T17:16:36.709Z,4.52
2023-03-19T17:19:07.412Z,4.50
2023-03-19T17:21:39.992Z,4.49
2023-03-19T17:24:34.015Z,4.47
2023-03-19T17:27:03.790Z,4.45
2023-03-19T17:29:33.486Z,4.46
2023-03-19T17:32:05.587Z,4.45
2023-03-19T17:34:38.780Z,4.44
2023-03-19T17:37:07.260Z,4.45
2023-03-19T17:39:42.610Z,4.44
2023-03-19T17:42:45.969Z,4.44
2023-03-19T17:45:17.613Z,4.43
2023-03-19T17:47:51.294Z,4.43
2023-03-19T17:50:21.272Z,4.41
2023-03-19T17:52:50.030Z,4.39
2023-03-19T17:55:20.086Z,4.39
2023-03-19T17:57:49.724Z,4.36
2023-03-19T18:00:19.652Z,4.36
2023-03-19T18:02:49.306Z,4.35
2023-03-19T18:05:25.274Z,4.33
2023-03-19T18:07:55.638Z,4.32
2023-03-19T18:10:31.153Z,4.30
2023-03-19T18:13:00.802Z,4.29
2023-03-19T18:15:34.915Z,4.28
2023-03-19T18:18:04.541Z,4.26
2023-03-19T18:20:36.270Z,4.25
2023-03-19T18:23:06.230Z,4.24
2023-03-19T18:25:36.742Z,4.23
2023-03-19T18:28:09.578Z,4.21
2023-03-19T18:30:39.931Z,4.21
2023-03-19T18:33:16.098Z,4.20
2023-03-19T18:35:50.926Z,4.19
2023-03-19T18:38:22.190Z,4.19
2023-03-19T18:40:50.890Z,4.18
2023-03-19T18:43:25.291Z,4.16
2023-03-19T18:46:21.467Z,4.14
2023-03-19T18:48:51.658Z,4.13
2023-03-19T18:51:22.152Z,4.12
2023-03-19T18:53:52.120Z,4.11
2023-03-19T18:56:30.694Z,4.09
2023-03-19T18:58:59.419Z,4.07
2023-03-19T19:01:31.786Z,4.06
2023-03-19T19:04:01.127Z,4.05
2023-03-19T19:06:46.782Z,4.04
2023-03-19T19:09:16.040Z,4.04
2023-03-19T19:11:47.590Z,4.04
2023-03-19T19:14:26.490Z,4.05
2023-03-19T19:16:57.459Z,4.06
2023-03-19T19:19:27.845Z,4.05
2023-03-19T19:21:57.994Z,4.05
2023-03-19T19:24:26.656Z,4.03
2023-03-19T19:26:57.069Z,4.03
2023-03-19T19:29:29.960Z,4.02
2023-03-19T19:32:01.021Z,4.01
2023-03-19T19:34:29.909Z,4.00
2023-03-19T19:37:01.152Z,3.99
2023-03-19T19:39:30.324Z,4.00
2023-03-19T19:41:58.787Z,4.00
2023-03-19T19:44:27.630Z,4.00
2023-03-19T19:46:57.884Z,4.00
2023-03-19T19:49:32.223Z,3.98
2023-03-19T19:52:00.986Z,3.97
2023-03-19T19:54:31.206Z,3.96
2023-03-19T19:57:01.441Z,3.95
2023-03-19T19:59:33.923Z,3.95
2023-03-19T20:02:15.463Z,3.94
2023-03-19T20:04:47.824Z,3.94
2023-03-19T20:07:16.670Z,3.92
2023-03-19T20:09:55.290Z,3.91
2023-03-19T20:12:26.967Z,3.91
2023-03-19T20:14:55.463Z,3.90
2023-03-19T20:17:24.263Z,3.90
2023-03-19T20:19:52.917Z,3.89
2023-03-19T20:22:21.265Z,3.88
2023-03-19T20:24:51.548Z,3.86
2023-03-19T20:27:32.509Z,3.85
2023-03-19T20:30:00.905Z,3.84
2023-03-19T20:32:39.864Z,3.84
2023-03-19T20:35:23.703Z,3.82
2023-03-19T20:38:00.420Z,3.80
2023-03-19T20:40:49.222Z,3.77
2023-03-19T20:43:31.360Z,3.74
2023-03-19T20:46:03.203Z,3.72
2023-03-19T20:48:32.996Z,3.70
2023-03-19T20:51:02.181Z,3.69
2023-03-19T20:53:31.923Z,3.67
2023-03-19T20:56:01.549Z,3.67
2023-03-19T20:58:30.493Z,3.66
2023-03-19T21:01:03.070Z,3.65
2023-03-19T21:03:56.519Z,3.64
2023-03-19T21:06:26.449Z,3.63
2023-03-19T21:08:58.869Z,3.62
2023-03-19T21:11:45.911Z,3.60
2023-03-19T21:14:16.413Z,3.58
2023-03-19T21:16:44.870Z,3.57
2023-03-19T21:19:14.456Z,3.55
2023-03-19T21:21:43.584Z,3.54
2023-03-19T21:24:14.026Z,3.53
2023-03-19T21:26:44.375Z,3.53
2023-03-19T21:29:21.923Z,3.51
2023-03-19T21:31:50.443Z,3.51
2023-03-19T21:34:19.524Z,3.49
2023-03-19T21:36:47.892Z,3.47
2023-03-19T21:39:17.355Z,3.46
2023-03-19T21:41:46.412Z,3.44
2023-03-19T21:44:20.843Z,3.41
2023-03-19T21:46:53.149Z,3.39
2023-03-19T21:49:22.144Z,3.38
2023-03-19T21:51:50.653Z,3.36
2023-03-19T21:54:19.329Z,3.35
2023-03-19T21:56:47.621Z,3.34
2023-03-19T21:59:23.733Z,3.33
2023-03-19T22:01:52.142Z,3.31
2023-03-19T22:04:20.547Z,3.30
2023-03-19T22:06:49.432Z,3.29
2023-03-19T22:09:19.810Z,3.27
2023-03-19T22:11:48.976Z,3.26
2023-03-19T22:14:28.322Z,3.24
2023-03-19T22:16:57.480Z,3.23
2023-03-19T22:19:27.789Z,3.22
2023-03-19T22:21:56.042Z,3.20
2023-03-19T22:24:25.318Z,3.19
2023-03-19T22:26:56.959Z,3.19
2023-03-19T22:29:29.169Z,3.18
2023-03-19T22:31:58.096Z,3.16
2023-03-19T22:34:31.014Z,3.15
2023-03-19T22:36:59.823Z,3.13
2023-03-19T22:39:28.000Z,3.11
2023-03-19T22:41:56.238Z,3.09
2023-03-19T22:44:27.531Z,3.07
2023-03-19T22:46:56.348Z,3.04
2023-03-19T22:49:24.996Z,3.02
2023-03-19T22:51:53.492Z,3.00
2023-03-19T22:54:21.949Z,2.98
2023-03-19T22:56:50.149Z,2.95
2023-03-19T22:59:20.538Z,2.93
2023-03-19T23:01:49.223Z,2.91
2023-03-19T23:04:28.845Z,2.90
2023-03-19T23:07:00.397Z,2.88
2023-03-19T23:09:31.929Z,2.86
2023-03-19T23:12:00.267Z,2.85
2023-03-19T23:14:30.878Z,2.83
2023-03-19T23:17:04.120Z,2.81
2023-03-19T23:19:37.232Z,2.78
2023-03-19T23:22:14.652Z,2.76
2023-03-19T23:24:42.895Z,2.74
2023-03-19T23:27:22.371Z,2.73
2023-03-19T23:31:25.335Z,2.73
2023-03-19T23:33:53.602Z,2.70
2023-03-19T23:36:22.733Z,2.69
2023-03-19T23:38:51.954Z,2.66
2023-03-19T23:41:24.312Z,2.63
2023-03-19T23:43:53.119Z,2.58
2023-03-19T23:53:56.865Z,2.46
2023-03-19T23:56:26.394Z,2.38
2023-03-19T23:58:54.821Z,2.33
